Meteo Giornale » Osservazioni meteo Svizzera » Buochs

ore: 04:50 - Osservazioni Meteo Buochs
Lat. 46° 58' N Lon. 8° 23' E Alt. 450 metri s.l.m.

sereno Europe/Zurich

3 °C

Sereno

Temp. 24 Ore

2 °C

11 °C

Ovest/Sud-Ovest

9.3 Km/h

Dew point 1 °C

Umidità 86 %

Visibilità  10 Km

Il sole sorge alle ore 08:04

Il sole tramonta alle ore 16:39

Data e Ora Cielo e Fenomeni T °C DP °C Um. % Pres. hPa Vis. km Vento km/h
Oggi h: 04:50 sereno Sereno 3 1 86 1011 10 O/SO 9.3
Oggi h: 04:20 sereno Sereno 4 1 80 1012 10 S/SO 7.4
Oggi h: 03:50 sereno Sereno 3 1 86 1012 10 O/SO 9.3
Oggi h: 03:20 sereno Sereno 4 2 86 1012 10 N 3.7
Oggi h: 02:50 sereno Sereno 6 2 75 1012 10 N 5.5
Oggi h: 02:20 poco_nuvoloso Poco Nuvoloso 5 2 80 1011 10 SO 13
Oggi h: 01:50 nuvoloso Nuvoloso 3 1 86 1011 10 O/SO 7.4
Oggi h: 01:20 molto_nuvoloso Molto Nuvoloso 5 2 80 1011 10 O 9.3
Oggi h: 00:50 molto_nuvoloso Molto Nuvoloso 5 2 80 1012 10 O 7.4
Oggi h: 00:20 sereno Sereno 4 2 86 1012 10 O 7.4
Ieri h: 23:50 sereno Sereno 5 2 80 1012 10 O 9.3
Ieri h: 23:20 sereno Sereno 6 2 75 1012 10 S/SO 13
Ieri h: 22:50 sereno Sereno 4 2 86 1012 10 O 9.3
Ieri h: 22:20 sereno Sereno 3 1 86 1012 10 SO 7.4
Ieri h: 21:50 sereno Sereno 4 1 80 1012 10 N 5.5
Ieri h: 20:50 sereno Sereno 6 2 75 1012 10 N 5.5
Ieri h: 20:20 sereno Sereno 6 2 75 1012 10 SO 11.1
Ieri h: 19:50 sereno Sereno 5 2 80 1012 10 SO 7.4
Ieri h: 19:20 sereno Sereno 6 1 70 1012 10 N 5.5
Ieri h: 18:50 poco_nuvoloso Poco Nuvoloso 7 2 70 1012 10 O/SO 7.4
Ieri h: 18:20 poco_nuvoloso Poco Nuvoloso 7 3 75 1011 10 O 7.4
Ieri h: 17:50 sereno Sereno 8 3 70 1011 10 SO 7.4
Ieri h: 17:20 sereno Sereno 9 4 70 1011 10 N 5.5
Ieri h: 16:50 sereno Sereno 9 4 70 1010 10 N 5.5
Ieri h: 16:20 sereno Sereno 10 4 66 1010 10 N 1.8
Ieri h: 15:50 sereno Sereno 9 4 70 1010 10 N 5.5
Ieri h: 15:20 poco_nuvoloso Poco Nuvoloso 10 4 66 1010 10 N 1.8
Ieri h: 14:50 poco_nuvoloso Poco Nuvoloso 11 4 61 1009 10 N 1.8
Ieri h: 14:20 poco_nuvoloso Poco Nuvoloso 11 3 57 1009 10 N 3.7
Ieri h: 13:50 poco_nuvoloso Poco Nuvoloso 11 4 61 1009 10 N 1.8
Ieri h: 13:20 molto_nuvoloso Molto Nuvoloso 10 3 61 1009 10 N 5.5
Ieri h: 12:50 poco_nuvoloso Poco Nuvoloso 10 3 61 1009 10 E 7.4
Ieri h: 12:20 nuvoloso Nuvoloso 10 3 61 1009 10 N 3.7
Ieri h: 11:50 molto_nuvoloso Molto Nuvoloso 9 3 66 1009 10 N 3.7
Ieri h: 11:20 molto_nuvoloso Molto Nuvoloso 8 4 75 1009 10 N 3.7
Ieri h: 10:50 poco_nuvoloso Poco Nuvoloso 8 3 70 1009 10 N 1.8
Ieri h: 10:20 poco_nuvoloso Poco Nuvoloso 5 3 86 1009 10 O/SO 7.4
Ieri h: 09:50 poco_nuvoloso Poco Nuvoloso 4 1 80 1009 10 O/SO 7.4
Ieri h: 09:20 poco_nuvoloso Poco Nuvoloso 3 -0 80 1008 10 O 7.4
Ieri h: 08:50 sereno Sereno 2 0 86 1009 10 O/SO 9.3
Ieri h: 08:20 sereno Sereno 2 0 86 1009 10 N 3.7
Ieri h: 07:50 sereno Sereno 3 1 86 1009 10 N 3.7
Ieri h: 07:20 poco_nuvoloso Poco Nuvoloso 3 1 86 1009 10 N 3.7
Ieri h: 06:50 nuvoloso Nuvoloso 3 1 86 1008 10 N 5.5
Ieri h: 06:20 poco_nuvoloso Poco Nuvoloso 3 1 86 1008 10 O/NO 7.4
Ieri h: 04:50 sereno Sereno 5 2 80 1007 10 O/NO 7.4